METAR AND TAF INFORMATION
METAR FOR OIIE
ADDS - METARS form results

(1237 UTC 23 January 2019)
Data provider http://aviationweather.gov/metar/data/
 
METAR text: OIIE 231200Z 26004KT CAVOK 12/M09 Q1018
Conditions at: OIIE (IMAM KHOMEINI , IR) observed 1200 UTC 23 January 2019
Temperature: 12.0°C (54°F)
Dewpoint: -9.0°C (16°F) [RH = 22%]
Pressure (altimeter): 30.06 inches Hg (1018.0 mb)
Winds: from the W (260 degrees) at 5 MPH (4 knots; 2.1 m/s)
Visibility: 6 or more miles (10+ km)
Ceiling: ceiling and visibility are OK
Clouds: unknown
Weather: no significant weather observed at this time

Forecast for: OIIE (IMAM KHOMEINI , IR)
Text: TAF OIIE 231100Z 2312/2418 28008KT 8000 NSC
Forecast period: 1200 UTC 23 January 2019 to 1800 UTC 24 January 2019
Forecast type: FROM: standard forecast or significant change
Winds: from the W (280 degrees) at 9 MPH (8 knots; 4.1 m/s)
Visibility: 5 miles (8 km)
Ceiling: unknown
Clouds: missing
Weather: no significant weather forecast for this period

 AIRPORT MAP

 RUNWAY INFORMATION

 AIRPORT FREQUENCIES
Type ATIS Name ATIS Frequency 127.2 MHZ
Type GND Name GND Frequency 121.6 MHZ
Type TWR Name TWR Frequency 118.7 MHZ

 AIRPORT NEAR NAVIGATION AIDS
Type VOR-DME Name Imam Khomeini Frequency 114300 KHZ



2018 Air Astana Virtual Airline